Terminal Aerodrome Forecast
Issued by NWS Sioux Falls, SD

Home | Current Version | Previous Version | Text Only | Print | Product List | Glossary Off
Versions: 1 2 3 4 5 6 7 8 9 10 11 12 13 14 15 16

000
FTUS43 KFSD 172329
TAFFSD
TAF
KFSD 172329Z 1800/1824 02005KT P6SM SCT080 OVC200
     FM180500 03005KT P6SM OVC100
     FM181000 09008KT P6SM OVC080
     FM181500 11008KT 5SM SHRA OVC060
     FM181900 12008KT 4SM SHRA OVC012=

USA.gov is the U.S. government's official web portal to all federal, state and local government web resources and services.